sensor_id;sensor_type;location;lat;lon;timestamp;temperature;humidity
48264;DHT22;34086;51.076;13.722;2024-01-30T00:00:37;3.50;99.90
48264;DHT22;34086;51.076;13.722;2024-01-30T00:01:38;3.50;99.90
48264;DHT22;34086;51.076;13.722;2024-01-30T00:02:38;3.40;99.90
48264;DHT22;34086;51.076;13.722;2024-01-30T00:03:39;3.40;99.90
48264;DHT22;34086;51.076;13.722;2024-01-30T00:04:39;3.40;99.90
48264;DHT22;34086;51.076;13.722;2024-01-30T00:05:40;3.40;99.90
48264;DHT22;34086;51.076;13.722;2024-01-30T00:06:40;3.40;99.90
48264;DHT22;34086;51.076;13.722;2024-01-30T00:07:41;3.40;99.90
48264;DHT22;34086;51.076;13.722;2024-01-30T00:08:41;3.40;99.90
48264;DHT22;34086;51.076;13.722;2024-01-30T00:09:42;3.40;99.90
48264;DHT22;34086;51.076;13.722;2024-01-30T00:10:42;3.40;99.90
48264;DHT22;34086;51.076;13.722;2024-01-30T00:11:43;3.40;99.90
48264;DHT22;34086;51.076;13.722;2024-01-30T00:12:44;3.40;99.90
48264;DHT22;34086;51.076;13.722;2024-01-30T00:13:44;3.40;99.90
48264;DHT22;34086;51.076;13.722;2024-01-30T00:14:45;3.40;99.90
48264;DHT22;34086;51.076;13.722;2024-01-30T00:15:46;3.40;99.90
48264;DHT22;34086;51.076;13.722;2024-01-30T00:16:46;3.40;99.90
48264;DHT22;34086;51.076;13.722;2024-01-30T00:17:47;3.50;99.90
48264;DHT22;34086;51.076;13.722;2024-01-30T00:18:48;3.50;99.90
48264;DHT22;34086;51.076;13.722;2024-01-30T00:19:48;3.50;99.90
48264;DHT22;34086;51.076;13.722;2024-01-30T00:20:49;3.50;99.90
48264;DHT22;34086;51.076;13.722;2024-01-30T00:21:50;3.40;99.90
48264;DHT22;34086;51.076;13.722;2024-01-30T00:22:50;3.50;99.90
48264;DHT22;34086;51.076;13.722;2024-01-30T00:23:51;3.50;99.90
48264;DHT22;34086;51.076;13.722;2024-01-30T00:24:51;3.40;99.90
48264;DHT22;34086;51.076;13.722;2024-01-30T00:25:52;3.50;99.90
48264;DHT22;34086;51.076;13.722;2024-01-30T00:26:52;3.50;99.90
48264;DHT22;34086;51.076;13.722;2024-01-30T00:27:53;3.50;99.90
48264;DHT22;34086;51.076;13.722;2024-01-30T00:28:53;3.50;99.90
48264;DHT22;34086;51.076;13.722;2024-01-30T00:29:54;3.50;99.90
48264;DHT22;34086;51.076;13.722;2024-01-30T00:30:54;3.50;99.90
48264;DHT22;34086;51.076;13.722;2024-01-30T00:31:55;3.50;99.90
48264;DHT22;34086;51.076;13.722;2024-01-30T00:32:55;3.50;99.90
48264;DHT22;34086;51.076;13.722;2024-01-30T00:33:56;3.40;99.90
48264;DHT22;34086;51.076;13.722;2024-01-30T00:34:56;3.40;99.90
48264;DHT22;34086;51.076;13.722;2024-01-30T00:35:57;3.40;99.90
48264;DHT22;34086;51.076;13.722;2024-01-30T00:36:57;3.40;99.90
48264;DHT22;34086;51.076;13.722;2024-01-30T00:37:58;3.40;99.90
48264;DHT22;34086;51.076;13.722;2024-01-30T00:38:58;3.40;99.90
48264;DHT22;34086;51.076;13.722;2024-01-30T00:39:59;3.40;99.90
48264;DHT22;34086;51.076;13.722;2024-01-30T00:40:59;3.40;99.90
48264;DHT22;34086;51.076;13.722;2024-01-30T00:42:00;3.40;99.90
48264;DHT22;34086;51.076;13.722;2024-01-30T00:43:00;3.40;99.90
48264;DHT22;34086;51.076;13.722;2024-01-30T00:44:01;3.30;99.90
48264;DHT22;34086;51.076;13.722;2024-01-30T00:45:02;3.40;99.90
48264;DHT22;34086;51.076;13.722;2024-01-30T00:46:02;3.30;99.90
48264;DHT22;34086;51.076;13.722;2024-01-30T00:47:04;3.30;99.90
48264;DHT22;34086;51.076;13.722;2024-01-30T00:48:04;3.30;99.90
48264;DHT22;34086;51.076;13.722;2024-01-30T00:49:05;3.30;99.90
48264;DHT22;34086;51.076;13.722;2024-01-30T00:50:06;3.30;99.90
48264;DHT22;34086;51.076;13.722;2024-01-30T00:51:06;3.30;99.90
48264;DHT22;34086;51.076;13.722;2024-01-30T00:52:07;3.30;99.90
48264;DHT22;34086;51.076;13.722;2024-01-30T00:53:08;3.30;99.90
48264;DHT22;34086;51.076;13.722;2024-01-30T00:54:08;3.30;99.90
48264;DHT22;34086;51.076;13.722;2024-01-30T00:55:09;3.30;99.90
48264;DHT22;34086;51.076;13.722;2024-01-30T00:56:09;3.30;99.90
48264;DHT22;34086;51.076;13.722;2024-01-30T00:57:10;3.30;99.90
48264;DHT22;34086;51.076;13.722;2024-01-30T00:58:10;3.30;99.90
48264;DHT22;34086;51.076;13.722;2024-01-30T00:59:11;3.30;99.90
48264;DHT22;34086;51.076;13.722;2024-01-30T01:00:12;3.30;99.90
48264;DHT22;34086;51.076;13.722;2024-01-30T01:01:13;3.30;99.90
48264;DHT22;34086;51.076;13.722;2024-01-30T01:02:14;3.30;99.90
48264;DHT22;34086;51.076;13.722;2024-01-30T01:03:17;3.30;99.90
48264;DHT22;34086;51.076;13.722;2024-01-30T01:04:18;3.30;99.90
48264;DHT22;34086;51.076;13.722;2024-01-30T01:05:18;3.30;99.90
48264;DHT22;34086;51.076;13.722;2024-01-30T01:06:19;3.20;99.90
48264;DHT22;34086;51.076;13.722;2024-01-30T01:07:20;3.20;99.90
48264;DHT22;34086;51.076;13.722;2024-01-30T01:08:20;3.20;99.90
48264;DHT22;34086;51.076;13.722;2024-01-30T01:09:21;3.20;99.90
48264;DHT22;34086;51.076;13.722;2024-01-30T01:10:21;3.20;99.90
48264;DHT22;34086;51.076;13.722;2024-01-30T01:11:23;3.20;99.90
48264;DHT22;34086;51.076;13.722;2024-01-30T01:12:23;3.20;99.90
48264;DHT22;34086;51.076;13.722;2024-01-30T01:13:24;3.20;99.90
48264;DHT22;34086;51.076;13.722;2024-01-30T01:14:24;3.20;99.90
48264;DHT22;34086;51.076;13.722;2024-01-30T01:15:25;3.20;99.90
48264;DHT22;34086;51.076;13.722;2024-01-30T01:16:26;3.20;99.90
48264;DHT22;34086;51.076;13.722;2024-01-30T01:17:26;3.20;99.90
48264;DHT22;34086;51.076;13.722;2024-01-30T01:18:27;3.20;99.90
48264;DHT22;34086;51.076;13.722;2024-01-30T01:19:27;3.20;99.90
48264;DHT22;34086;51.076;13.722;2024-01-30T01:20:28;3.20;99.90
48264;DHT22;34086;51.076;13.722;2024-01-30T01:21:29;3.20;99.90
48264;DHT22;34086;51.076;13.722;2024-01-30T01:22:29;3.10;99.90
48264;DHT22;34086;51.076;13.722;2024-01-30T01:23:30;3.20;99.90
48264;DHT22;34086;51.076;13.722;2024-01-30T01:24:33;3.20;99.90
48264;DHT22;34086;51.076;13.722;2024-01-30T01:25:34;3.10;99.90
48264;DHT22;34086;51.076;13.722;2024-01-30T01:26:35;3.20;99.90
48264;DHT22;34086;51.076;13.722;2024-01-30T01:27:35;3.10;99.90
48264;DHT22;34086;51.076;13.722;2024-01-30T01:28:41;3.10;99.90
48264;DHT22;34086;51.076;13.722;2024-01-30T01:29:41;3.10;99.90
48264;DHT22;34086;51.076;13.722;2024-01-30T01:30:42;3.10;99.90
48264;DHT22;34086;51.076;13.722;2024-01-30T01:31:42;3.10;99.90
48264;DHT22;34086;51.076;13.722;2024-01-30T01:32:47;3.10;99.90
48264;DHT22;34086;51.076;13.722;2024-01-30T01:33:55;3.00;99.90
48264;DHT22;34086;51.076;13.722;2024-01-30T01:34:55;3.10;99.90
48264;DHT22;34086;51.076;13.722;2024-01-30T01:35:56;3.10;99.90
48264;DHT22;34086;51.076;13.722;2024-01-30T01:36:56;3.10;99.90
48264;DHT22;34086;51.076;13.722;2024-01-30T01:37:57;3.10;99.90
48264;DHT22;34086;51.076;13.722;2024-01-30T01:39:00;3.10;99.90
48264;DHT22;34086;51.076;13.722;2024-01-30T01:40:00;3.10;99.90
48264;DHT22;34086;51.076;13.722;2024-01-30T01:41:01;3.10;99.90
48264;DHT22;34086;51.076;13.722;2024-01-30T01:42:01;3.10;99.90
48264;DHT22;34086;51.076;13.722;2024-01-30T01:43:03;3.10;99.90
48264;DHT22;34086;51.076;13.722;2024-01-30T01:44:05;3.10;99.90
48264;DHT22;34086;51.076;13.722;2024-01-30T01:45:06;3.10;99.90
48264;DHT22;34086;51.076;13.722;2024-01-30T01:46:07;3.10;99.90
48264;DHT22;34086;51.076;13.722;2024-01-30T01:47:08;3.10;99.90
48264;DHT22;34086;51.076;13.722;2024-01-30T01:48:09;3.10;99.90
48264;DHT22;34086;51.076;13.722;2024-01-30T01:49:11;3.10;99.90
48264;DHT22;34086;51.076;13.722;2024-01-30T01:50:13;3.10;99.90
48264;DHT22;34086;51.076;13.722;2024-01-30T01:51:14;3.00;99.90
48264;DHT22;34086;51.076;13.722;2024-01-30T01:52:16;3.00;99.90
48264;DHT22;34086;51.076;13.722;2024-01-30T01:53:17;3.10;99.90
48264;DHT22;34086;51.076;13.722;2024-01-30T01:54:18;3.10;99.90
48264;DHT22;34086;51.076;13.722;2024-01-30T01:55:21;3.10;99.90
48264;DHT22;34086;51.076;13.722;2024-01-30T01:56:24;3.10;99.90
48264;DHT22;34086;51.076;13.722;2024-01-30T01:57:26;3.00;99.90
48264;DHT22;34086;51.076;13.722;2024-01-30T01:58:27;3.00;99.90
48264;DHT22;34086;51.076;13.722;2024-01-30T01:59:29;3.00;99.90
48264;DHT22;34086;51.076;13.722;2024-01-30T02:00:30;3.00;99.90
48264;DHT22;34086;51.076;13.722;2024-01-30T02:01:32;3.00;99.90
48264;DHT22;34086;51.076;13.722;2024-01-30T02:02:35;3.00;99.90
48264;DHT22;34086;51.076;13.722;2024-01-30T02:03:36;3.00;99.90
48264;DHT22;34086;51.076;13.722;2024-01-30T02:04:37;3.00;99.90
48264;DHT22;34086;51.076;13.722;2024-01-30T02:05:38;3.00;99.90
48264;DHT22;34086;51.076;13.722;2024-01-30T02:06:39;2.90;99.90
48264;DHT22;34086;51.076;13.722;2024-01-30T02:07:40;3.00;99.90
48264;DHT22;34086;51.076;13.722;2024-01-30T02:08:42;3.00;99.90
48264;DHT22;34086;51.076;13.722;2024-01-30T02:09:42;3.00;99.90
48264;DHT22;34086;51.076;13.722;2024-01-30T02:10:44;3.00;99.90
48264;DHT22;34086;51.076;13.722;2024-01-30T02:11:44;3.00;99.90
48264;DHT22;34086;51.076;13.722;2024-01-30T02:12:45;3.00;99.90
48264;DHT22;34086;51.076;13.722;2024-01-30T02:13:45;3.00;99.90
48264;DHT22;34086;51.076;13.722;2024-01-30T02:14:47;3.00;99.90
48264;DHT22;34086;51.076;13.722;2024-01-30T02:15:54;3.00;99.90
48264;DHT22;34086;51.076;13.722;2024-01-30T02:16:54;3.00;99.90
48264;DHT22;34086;51.076;13.722;2024-01-30T02:17:55;3.00;99.90
48264;DHT22;34086;51.076;13.722;2024-01-30T02:18:55;2.90;99.90
48264;DHT22;34086;51.076;13.722;2024-01-30T02:19:56;2.90;99.90
48264;DHT22;34086;51.076;13.722;2024-01-30T02:20:58;2.90;99.90
48264;DHT22;34086;51.076;13.722;2024-01-30T02:22:02;2.90;99.90
48264;DHT22;34086;51.076;13.722;2024-01-30T02:23:04;2.90;99.90
48264;DHT22;34086;51.076;13.722;2024-01-30T02:24:05;2.90;99.90
48264;DHT22;34086;51.076;13.722;2024-01-30T02:25:06;2.80;99.90
48264;DHT22;34086;51.076;13.722;2024-01-30T02:26:06;2.80;99.90
48264;DHT22;34086;51.076;13.722;2024-01-30T02:27:07;2.80;99.90
48264;DHT22;34086;51.076;13.722;2024-01-30T02:28:07;2.80;99.90
48264;DHT22;34086;51.076;13.722;2024-01-30T02:29:08;2.80;99.90
48264;DHT22;34086;51.076;13.722;2024-01-30T02:30:09;2.90;99.90
48264;DHT22;34086;51.076;13.722;2024-01-30T02:31:10;2.80;99.90
48264;DHT22;34086;51.076;13.722;2024-01-30T02:32:10;2.90;99.90
48264;DHT22;34086;51.076;13.722;2024-01-30T02:33:11;2.90;99.90
48264;DHT22;34086;51.076;13.722;2024-01-30T02:34:11;2.80;99.90
48264;DHT22;34086;51.076;13.722;2024-01-30T02:35:12;2.80;99.90
48264;DHT22;34086;51.076;13.722;2024-01-30T02:36:12;2.90;99.90
48264;DHT22;34086;51.076;13.722;2024-01-30T02:37:13;2.90;99.90
48264;DHT22;34086;51.076;13.722;2024-01-30T02:38:15;2.90;99.90
48264;DHT22;34086;51.076;13.722;2024-01-30T02:39:15;2.80;99.90
48264;DHT22;34086;51.076;13.722;2024-01-30T02:40:16;2.90;99.90
48264;DHT22;34086;51.076;13.722;2024-01-30T02:41:16;2.80;99.90
48264;DHT22;34086;51.076;13.722;2024-01-30T02:42:17;2.80;99.90
48264;DHT22;34086;51.076;13.722;2024-01-30T02:43:17;2.90;99.90
48264;DHT22;34086;51.076;13.722;2024-01-30T02:44:18;2.90;99.90
48264;DHT22;34086;51.076;13.722;2024-01-30T02:45:18;2.90;99.90
48264;DHT22;34086;51.076;13.722;2024-01-30T02:46:19;2.90;99.90
48264;DHT22;34086;51.076;13.722;2024-01-30T02:47:20;2.80;99.90
48264;DHT22;34086;51.076;13.722;2024-01-30T02:48:20;2.80;99.90
48264;DHT22;34086;51.076;13.722;2024-01-30T02:49:21;2.80;99.90
48264;DHT22;34086;51.076;13.722;2024-01-30T02:50:22;2.80;99.90
48264;DHT22;34086;51.076;13.722;2024-01-30T02:51:22;2.80;99.90
48264;DHT22;34086;51.076;13.722;2024-01-30T02:52:23;2.80;99.90
48264;DHT22;34086;51.076;13.722;2024-01-30T02:53:23;2.80;99.90
48264;DHT22;34086;51.076;13.722;2024-01-30T02:54:25;2.80;99.90
48264;DHT22;34086;51.076;13.722;2024-01-30T02:55:25;2.80;99.90
48264;DHT22;34086;51.076;13.722;2024-01-30T02:56:26;2.70;99.90
48264;DHT22;34086;51.076;13.722;2024-01-30T02:57:26;2.70;99.90
48264;DHT22;34086;51.076;13.722;2024-01-30T02:58:27;2.70;99.90
48264;DHT22;34086;51.076;13.722;2024-01-30T02:59:27;2.70;99.90
48264;DHT22;34086;51.076;13.722;2024-01-30T03:00:28;2.70;99.90
48264;DHT22;34086;51.076;13.722;2024-01-30T03:01:28;2.70;99.90
48264;DHT22;34086;51.076;13.722;2024-01-30T03:02:29;2.70;99.90
48264;DHT22;34086;51.076;13.722;2024-01-30T03:03:29;2.70;99.90
48264;DHT22;34086;51.076;13.722;2024-01-30T03:04:30;2.70;99.90
48264;DHT22;34086;51.076;13.722;2024-01-30T03:05:31;2.70;99.90
48264;DHT22;34086;51.076;13.722;2024-01-30T03:06:31;2.70;99.90
48264;DHT22;34086;51.076;13.722;2024-01-30T03:07:32;2.60;99.90
48264;DHT22;34086;51.076;13.722;2024-01-30T03:08:33;2.70;99.90
48264;DHT22;34086;51.076;13.722;2024-01-30T03:09:36;2.70;99.90
48264;DHT22;34086;51.076;13.722;2024-01-30T03:10:36;2.70;99.90
48264;DHT22;34086;51.076;13.722;2024-01-30T03:11:37;2.70;99.90
48264;DHT22;34086;51.076;13.722;2024-01-30T03:12:37;2.70;99.90
48264;DHT22;34086;51.076;13.722;2024-01-30T03:13:38;2.60;99.90
48264;DHT22;34086;51.076;13.722;2024-01-30T03:14:38;2.60;99.90
48264;DHT22;34086;51.076;13.722;2024-01-30T03:15:39;2.60;99.90
48264;DHT22;34086;51.076;13.722;2024-01-30T03:16:39;2.60;99.90
48264;DHT22;34086;51.076;13.722;2024-01-30T03:17:41;2.60;99.90
48264;DHT22;34086;51.076;13.722;2024-01-30T03:18:41;2.60;99.90
48264;DHT22;34086;51.076;13.722;2024-01-30T03:19:42;2.60;99.90
48264;DHT22;34086;51.076;13.722;2024-01-30T03:20:42;2.60;99.90
48264;DHT22;34086;51.076;13.722;2024-01-30T03:21:43;2.60;99.90
48264;DHT22;34086;51.076;13.722;2024-01-30T03:22:43;2.60;99.90
48264;DHT22;34086;51.076;13.722;2024-01-30T03:23:44;2.60;99.90
48264;DHT22;34086;51.076;13.722;2024-01-30T03:24:44;2.60;99.90
48264;DHT22;34086;51.076;13.722;2024-01-30T03:25:45;2.60;99.90
48264;DHT22;34086;51.076;13.722;2024-01-30T03:26:45;2.60;99.90
48264;DHT22;34086;51.076;13.722;2024-01-30T03:27:46;2.50;99.90
48264;DHT22;34086;51.076;13.722;2024-01-30T03:28:47;2.50;99.90
48264;DHT22;34086;51.076;13.722;2024-01-30T03:29:47;2.50;99.90
48264;DHT22;34086;51.076;13.722;2024-01-30T03:30:48;2.50;99.90
48264;DHT22;34086;51.076;13.722;2024-01-30T03:31:48;2.50;99.90
48264;DHT22;34086;51.076;13.722;2024-01-30T03:32:49;2.50;99.90
48264;DHT22;34086;51.076;13.722;2024-01-30T03:33:49;2.50;99.90
48264;DHT22;34086;51.076;13.722;2024-01-30T03:34:50;2.60;99.90
48264;DHT22;34086;51.076;13.722;2024-01-30T03:35:50;2.50;99.90
48264;DHT22;34086;51.076;13.722;2024-01-30T03:36:51;2.60;99.90
48264;DHT22;34086;51.076;13.722;2024-01-30T03:37:51;2.60;99.90
48264;DHT22;34086;51.076;13.722;2024-01-30T03:38:52;2.60;99.90
48264;DHT22;34086;51.076;13.722;2024-01-30T03:39:52;2.60;99.90
48264;DHT22;34086;51.076;13.722;2024-01-30T03:40:53;2.60;99.90
48264;DHT22;34086;51.076;13.722;2024-01-30T03:41:53;2.60;99.90
48264;DHT22;34086;51.076;13.722;2024-01-30T03:42:54;2.60;99.90
48264;DHT22;34086;51.076;13.722;2024-01-30T03:43:54;2.60;99.90
48264;DHT22;34086;51.076;13.722;2024-01-30T03:44:56;2.60;99.90
48264;DHT22;34086;51.076;13.722;2024-01-30T03:45:57;2.60;99.90
48264;DHT22;34086;51.076;13.722;2024-01-30T03:46:57;2.60;99.90
48264;DHT22;34086;51.076;13.722;2024-01-30T03:47:58;2.60;99.90
48264;DHT22;34086;51.076;13.722;2024-01-30T03:48:58;2.60;99.90
48264;DHT22;34086;51.076;13.722;2024-01-30T03:49:59;2.60;99.90
48264;DHT22;34086;51.076;13.722;2024-01-30T03:50:59;2.60;99.90
48264;DHT22;34086;51.076;13.722;2024-01-30T03:52:00;2.60;99.90
48264;DHT22;34086;51.076;13.722;2024-01-30T03:53:01;2.60;99.90
48264;DHT22;34086;51.076;13.722;2024-01-30T03:54:01;2.50;99.90
48264;DHT22;34086;51.076;13.722;2024-01-30T03:55:02;2.50;99.90
48264;DHT22;34086;51.076;13.722;2024-01-30T03:56:03;2.50;99.90
48264;DHT22;34086;51.076;13.722;2024-01-30T03:57:03;2.60;99.90
48264;DHT22;34086;51.076;13.722;2024-01-30T03:58:04;2.60;99.90
48264;DHT22;34086;51.076;13.722;2024-01-30T03:59:04;2.60;99.90
48264;DHT22;34086;51.076;13.722;2024-01-30T04:00:05;2.60;99.90
48264;DHT22;34086;51.076;13.722;2024-01-30T04:01:15;2.60;99.90
48264;DHT22;34086;51.076;13.722;2024-01-30T04:02:16;2.60;99.90
48264;DHT22;34086;51.076;13.722;2024-01-30T04:03:16;2.60;99.90
48264;DHT22;34086;51.076;13.722;2024-01-30T04:04:18;2.60;99.90
48264;DHT22;34086;51.076;13.722;2024-01-30T04:05:18;2.60;99.90
48264;DHT22;34086;51.076;13.722;2024-01-30T04:06:19;2.60;99.90
48264;DHT22;34086;51.076;13.722;2024-01-30T04:07:19;2.60;99.90
48264;DHT22;34086;51.076;13.722;2024-01-30T04:08:20;2.60;99.90
48264;DHT22;34086;51.076;13.722;2024-01-30T04:09:21;2.60;99.90
48264;DHT22;34086;51.076;13.722;2024-01-30T04:10:21;2.60;99.90
48264;DHT22;34086;51.076;13.722;2024-01-30T04:11:22;2.60;99.90
48264;DHT22;34086;51.076;13.722;2024-01-30T04:12:23;2.60;99.90
48264;DHT22;34086;51.076;13.722;2024-01-30T04:13:23;2.60;99.90
48264;DHT22;34086;51.076;13.722;2024-01-30T04:14:24;2.70;99.90
48264;DHT22;34086;51.076;13.722;2024-01-30T04:15:24;2.60;99.90
48264;DHT22;34086;51.076;13.722;2024-01-30T04:16:25;2.70;99.90
48264;DHT22;34086;51.076;13.722;2024-01-30T04:17:25;2.60;99.90
48264;DHT22;34086;51.076;13.722;2024-01-30T04:18:26;2.70;99.90
48264;DHT22;34086;51.076;13.722;2024-01-30T04:19:26;2.60;99.90
48264;DHT22;34086;51.076;13.722;2024-01-30T04:20:27;2.70;99.90
48264;DHT22;34086;51.076;13.722;2024-01-30T04:21:27;2.70;99.90
48264;DHT22;34086;51.076;13.722;2024-01-30T04:22:28;2.70;99.90
48264;DHT22;34086;51.076;13.722;2024-01-30T04:23:28;2.70;99.90
48264;DHT22;34086;51.076;13.722;2024-01-30T04:24:29;2.60;99.90
48264;DHT22;34086;51.076;13.722;2024-01-30T04:25:29;2.70;99.90
48264;DHT22;34086;51.076;13.722;2024-01-30T04:26:30;2.70;99.90
48264;DHT22;34086;51.076;13.722;2024-01-30T04:27:30;2.60;99.90
48264;DHT22;34086;51.076;13.722;2024-01-30T04:28:31;2.60;99.90
48264;DHT22;34086;51.076;13.722;2024-01-30T04:29:32;2.60;99.90
48264;DHT22;34086;51.076;13.722;2024-01-30T04:30:33;2.60;99.90
48264;DHT22;34086;51.076;13.722;2024-01-30T04:31:36;2.60;99.90
48264;DHT22;34086;51.076;13.722;2024-01-30T04:32:36;2.60;99.90
48264;DHT22;34086;51.076;13.722;2024-01-30T04:33:37;2.60;99.90
48264;DHT22;34086;51.076;13.722;2024-01-30T04:34:38;2.60;99.90
48264;DHT22;34086;51.076;13.722;2024-01-30T04:35:38;2.60;99.90
48264;DHT22;34086;51.076;13.722;2024-01-30T04:36:39;2.60;99.90
48264;DHT22;34086;51.076;13.722;2024-01-30T04:37:39;2.60;99.90
48264;DHT22;34086;51.076;13.722;2024-01-30T04:38:40;2.60;99.90
48264;DHT22;34086;51.076;13.722;2024-01-30T04:39:40;2.60;99.90
48264;DHT22;34086;51.076;13.722;2024-01-30T04:40:41;2.60;99.90
48264;DHT22;34086;51.076;13.722;2024-01-30T04:41:42;2.60;99.90
48264;DHT22;34086;51.076;13.722;2024-01-30T04:42:42;2.60;99.90
48264;DHT22;34086;51.076;13.722;2024-01-30T04:43:43;2.60;99.90
48264;DHT22;34086;51.076;13.722;2024-01-30T04:44:43;2.60;99.90
48264;DHT22;34086;51.076;13.722;2024-01-30T04:45:44;2.60;99.90
48264;DHT22;34086;51.076;13.722;2024-01-30T04:46:45;2.60;99.90
48264;DHT22;34086;51.076;13.722;2024-01-30T04:47:45;2.60;99.90
48264;DHT22;34086;51.076;13.722;2024-01-30T04:48:46;2.50;99.90
48264;DHT22;34086;51.076;13.722;2024-01-30T04:49:46;2.60;99.90
48264;DHT22;34086;51.076;13.722;2024-01-30T04:50:47;2.60;99.90
48264;DHT22;34086;51.076;13.722;2024-01-30T04:51:48;2.60;99.90
48264;DHT22;34086;51.076;13.722;2024-01-30T04:52:48;2.60;99.90
48264;DHT22;34086;51.076;13.722;2024-01-30T04:53:49;2.60;99.90
48264;DHT22;34086;51.076;13.722;2024-01-30T04:54:49;2.50;99.90
48264;DHT22;34086;51.076;13.722;2024-01-30T04:55:50;2.60;99.90
48264;DHT22;34086;51.076;13.722;2024-01-30T04:56:50;2.60;99.90
48264;DHT22;34086;51.076;13.722;2024-01-30T04:57:51;2.60;99.90
48264;DHT22;34086;51.076;13.722;2024-01-30T04:58:52;2.70;99.90
48264;DHT22;34086;51.076;13.722;2024-01-30T04:59:52;2.80;99.90
48264;DHT22;34086;51.076;13.722;2024-01-30T05:00:53;2.80;99.90
48264;DHT22;34086;51.076;13.722;2024-01-30T05:01:53;2.80;99.90
48264;DHT22;34086;51.076;13.722;2024-01-30T05:02:57;2.90;99.90
48264;DHT22;34086;51.076;13.722;2024-01-30T05:03:57;2.90;99.90
48264;DHT22;34086;51.076;13.722;2024-01-30T05:04:58;2.80;99.90
48264;DHT22;34086;51.076;13.722;2024-01-30T05:05:58;2.80;99.90
48264;DHT22;34086;51.076;13.722;2024-01-30T05:06:59;2.80;99.90
48264;DHT22;34086;51.076;13.722;2024-01-30T05:08:00;2.80;99.90
48264;DHT22;34086;51.076;13.722;2024-01-30T05:09:00;2.70;99.90
48264;DHT22;34086;51.076;13.722;2024-01-30T05:10:01;2.80;99.90
48264;DHT22;34086;51.076;13.722;2024-01-30T05:11:02;2.80;99.90
48264;DHT22;34086;51.076;13.722;2024-01-30T05:12:04;2.80;99.90
48264;DHT22;34086;51.076;13.722;2024-01-30T05:13:05;2.80;99.90
48264;DHT22;34086;51.076;13.722;2024-01-30T05:14:06;2.80;99.90
48264;DHT22;34086;51.076;13.722;2024-01-30T05:15:07;2.80;99.90
48264;DHT22;34086;51.076;13.722;2024-01-30T05:16:08;2.70;99.90
48264;DHT22;34086;51.076;13.722;2024-01-30T05:17:08;2.70;99.90
48264;DHT22;34086;51.076;13.722;2024-01-30T05:18:10;2.70;99.90
48264;DHT22;34086;51.076;13.722;2024-01-30T05:19:11;2.80;99.90
48264;DHT22;34086;51.076;13.722;2024-01-30T05:20:11;2.80;99.90
48264;DHT22;34086;51.076;13.722;2024-01-30T05:21:12;2.80;99.90
48264;DHT22;34086;51.076;13.722;2024-01-30T05:22:13;2.80;99.90
48264;DHT22;34086;51.076;13.722;2024-01-30T05:23:18;2.80;99.90
48264;DHT22;34086;51.076;13.722;2024-01-30T05:24:18;2.80;99.90
48264;DHT22;34086;51.076;13.722;2024-01-30T05:25:19;2.70;99.90
48264;DHT22;34086;51.076;13.722;2024-01-30T05:26:19;2.70;99.90
48264;DHT22;34086;51.076;13.722;2024-01-30T05:27:20;2.70;99.90
48264;DHT22;34086;51.076;13.722;2024-01-30T05:28:21;2.60;99.90
48264;DHT22;34086;51.076;13.722;2024-01-30T05:29:21;2.60;99.90
48264;DHT22;34086;51.076;13.722;2024-01-30T05:30:22;2.60;99.90
48264;DHT22;34086;51.076;13.722;2024-01-30T05:31:23;2.50;99.90
48264;DHT22;34086;51.076;13.722;2024-01-30T05:32:23;2.60;99.90
48264;DHT22;34086;51.076;13.722;2024-01-30T05:33:24;2.50;99.90
48264;DHT22;34086;51.076;13.722;2024-01-30T05:34:24;2.60;99.90
48264;DHT22;34086;51.076;13.722;2024-01-30T05:35:25;2.60;99.90
48264;DHT22;34086;51.076;13.722;2024-01-30T05:36:25;2.60;99.90
48264;DHT22;34086;51.076;13.722;2024-01-30T05:37:26;2.60;99.90
48264;DHT22;34086;51.076;13.722;2024-01-30T05:38:26;2.60;99.90
48264;DHT22;34086;51.076;13.722;2024-01-30T05:39:27;2.60;99.90
48264;DHT22;34086;51.076;13.722;2024-01-30T05:40:28;2.60;99.90
48264;DHT22;34086;51.076;13.722;2024-01-30T05:41:28;2.60;99.90
48264;DHT22;34086;51.076;13.722;2024-01-30T05:42:29;2.60;99.90
48264;DHT22;34086;51.076;13.722;2024-01-30T05:43:29;2.60;99.90
48264;DHT22;34086;51.076;13.722;2024-01-30T05:44:30;2.60;99.90
48264;DHT22;34086;51.076;13.722;2024-01-30T05:45:31;2.50;99.90
48264;DHT22;34086;51.076;13.722;2024-01-30T05:46:32;2.60;99.90
48264;DHT22;34086;51.076;13.722;2024-01-30T05:47:34;2.60;99.90
48264;DHT22;34086;51.076;13.722;2024-01-30T05:48:35;2.50;99.90
48264;DHT22;34086;51.076;13.722;2024-01-30T05:49:35;2.50;99.90
48264;DHT22;34086;51.076;13.722;2024-01-30T05:50:37;2.50;99.90
48264;DHT22;34086;51.076;13.722;2024-01-30T05:51:37;2.50;99.90
48264;DHT22;34086;51.076;13.722;2024-01-30T05:52:38;2.50;99.90
48264;DHT22;34086;51.076;13.722;2024-01-30T05:53:38;2.50;99.90
48264;DHT22;34086;51.076;13.722;2024-01-30T05:54:39;2.60;99.90
48264;DHT22;34086;51.076;13.722;2024-01-30T05:55:39;2.60;99.90
48264;DHT22;34086;51.076;13.722;2024-01-30T05:56:40;2.60;99.90
48264;DHT22;34086;51.076;13.722;2024-01-30T05:57:40;2.60;99.90
48264;DHT22;34086;51.076;13.722;2024-01-30T05:58:41;2.60;99.90
48264;DHT22;34086;51.076;13.722;2024-01-30T05:59:44;2.60;99.90
48264;DHT22;34086;51.076;13.722;2024-01-30T06:00:45;2.60;99.90
48264;DHT22;34086;51.076;13.722;2024-01-30T06:01:46;2.60;99.90
48264;DHT22;34086;51.076;13.722;2024-01-30T06:02:47;2.60;99.90
48264;DHT22;34086;51.076;13.722;2024-01-30T06:03:48;2.70;99.90
48264;DHT22;34086;51.076;13.722;2024-01-30T06:04:48;2.70;99.90
48264;DHT22;34086;51.076;13.722;2024-01-30T06:05:49;2.60;99.90
48264;DHT22;34086;51.076;13.722;2024-01-30T06:06:49;2.60;99.90
48264;DHT22;34086;51.076;13.722;2024-01-30T06:07:50;2.60;99.90
48264;DHT22;34086;51.076;13.722;2024-01-30T06:08:50;2.60;99.90
48264;DHT22;34086;51.076;13.722;2024-01-30T06:09:51;2.60;99.90
48264;DHT22;34086;51.076;13.722;2024-01-30T06:10:52;2.60;99.90
48264;DHT22;34086;51.076;13.722;2024-01-30T06:11:52;2.60;99.90
48264;DHT22;34086;51.076;13.722;2024-01-30T06:12:53;2.60;99.90
48264;DHT22;34086;51.076;13.722;2024-01-30T06:13:53;2.60;99.90
48264;DHT22;34086;51.076;13.722;2024-01-30T06:14:54;2.60;99.90
48264;DHT22;34086;51.076;13.722;2024-01-30T06:15:57;2.60;99.90
48264;DHT22;34086;51.076;13.722;2024-01-30T06:16:57;2.60;99.90
48264;DHT22;34086;51.076;13.722;2024-01-30T06:17:58;2.60;99.90
48264;DHT22;34086;51.076;13.722;2024-01-30T06:18:59;2.50;99.90
48264;DHT22;34086;51.076;13.722;2024-01-30T06:20:00;2.50;99.90
48264;DHT22;34086;51.076;13.722;2024-01-30T06:21:00;2.50;99.90
48264;DHT22;34086;51.076;13.722;2024-01-30T06:22:01;2.60;99.90
48264;DHT22;34086;51.076;13.722;2024-01-30T06:23:01;2.60;99.90
48264;DHT22;34086;51.076;13.722;2024-01-30T06:24:02;2.50;99.90